sensor_id;sensor_type;location;lat;lon;timestamp;P1;durP1;ratioP1;P2;durP2;ratioP2
52798;SDS011;38667;42.872;74.622;2023-06-26T00:02:11;2.67;;;1.02;;
52798;SDS011;38667;42.872;74.622;2023-06-26T00:04:37;3.17;;;1.00;;
52798;SDS011;38667;42.872;74.622;2023-06-26T00:07:03;5.40;;;0.90;;
52798;SDS011;38667;42.872;74.622;2023-06-26T00:09:31;2.63;;;1.10;;
52798;SDS011;38667;42.872;74.622;2023-06-26T00:11:58;4.70;;;1.25;;
52798;SDS011;38667;42.872;74.622;2023-06-26T00:14:24;1.73;;;1.10;;
52798;SDS011;38667;42.872;74.622;2023-06-26T00:16:50;1.67;;;0.80;;
52798;SDS011;38667;42.872;74.622;2023-06-26T00:19:17;1.23;;;0.60;;
52798;SDS011;38667;42.872;74.622;2023-06-26T00:21:43;3.15;;;0.95;;
52798;SDS011;38667;42.872;74.622;2023-06-26T00:24:10;2.95;;;0.90;;
52798;SDS011;38667;42.872;74.622;2023-06-26T00:26:38;2.17;;;0.98;;
52798;SDS011;38667;42.872;74.622;2023-06-26T00:29:04;2.13;;;0.82;;
52798;SDS011;38667;42.872;74.622;2023-06-26T00:31:30;1.50;;;0.90;;
52798;SDS011;38667;42.872;74.622;2023-06-26T00:33:57;2.67;;;0.60;;
52798;SDS011;38667;42.872;74.622;2023-06-26T00:36:23;2.38;;;0.70;;
52798;SDS011;38667;42.872;74.622;2023-06-26T00:38:49;1.98;;;1.00;;
52798;SDS011;38667;42.872;74.622;2023-06-26T00:41:16;1.15;;;0.70;;
52798;SDS011;38667;42.872;74.622;2023-06-26T00:43:43;3.05;;;1.33;;
52798;SDS011;38667;42.872;74.622;2023-06-26T00:46:10;1.88;;;1.10;;
52798;SDS011;38667;42.872;74.622;2023-06-26T00:48:38;2.97;;;0.88;;
52798;SDS011;38667;42.872;74.622;2023-06-26T00:51:06;2.03;;;1.17;;
52798;SDS011;38667;42.872;74.622;2023-06-26T00:53:33;2.88;;;0.90;;
52798;SDS011;38667;42.872;74.622;2023-06-26T00:56:00;4.82;;;1.25;;
52798;SDS011;38667;42.872;74.622;2023-06-26T00:58:27;2.45;;;1.15;;
52798;SDS011;38667;42.872;74.622;2023-06-26T01:00:55;1.65;;;1.00;;
52798;SDS011;38667;42.872;74.622;2023-06-26T01:03:22;1.02;;;0.90;;
52798;SDS011;38667;42.872;74.622;2023-06-26T01:05:50;5.25;;;1.05;;
52798;SDS011;38667;42.872;74.622;2023-06-26T01:08:19;4.32;;;1.20;;
52798;SDS011;38667;42.872;74.622;2023-06-26T01:10:45;2.67;;;1.17;;
52798;SDS011;38667;42.872;74.622;2023-06-26T01:13:13;1.40;;;0.88;;
52798;SDS011;38667;42.872;74.622;2023-06-26T01:15:40;1.50;;;1.10;;
52798;SDS011;38667;42.872;74.622;2023-06-26T01:18:08;2.10;;;1.10;;
52798;SDS011;38667;42.872;74.622;2023-06-26T01:20:35;2.25;;;1.10;;
52798;SDS011;38667;42.872;74.622;2023-06-26T01:23:04;2.35;;;1.20;;
52798;SDS011;38667;42.872;74.622;2023-06-26T01:25:51;4.30;;;1.17;;
52798;SDS011;38667;42.872;74.622;2023-06-26T01:28:28;4.43;;;1.35;;
52798;SDS011;38667;42.872;74.622;2023-06-26T01:30:55;2.88;;;1.20;;
52798;SDS011;38667;42.872;74.622;2023-06-26T01:33:21;5.43;;;1.50;;
52798;SDS011;38667;42.872;74.622;2023-06-26T01:35:48;2.75;;;1.25;;
52798;SDS011;38667;42.872;74.622;2023-06-26T01:38:15;2.72;;;1.25;;
52798;SDS011;38667;42.872;74.622;2023-06-26T01:40:43;1.77;;;0.95;;
52798;SDS011;38667;42.872;74.622;2023-06-26T01:43:11;1.52;;;1.08;;
52798;SDS011;38667;42.872;74.622;2023-06-26T01:45:45;2.50;;;1.38;;
52798;SDS011;38667;42.872;74.622;2023-06-26T01:48:15;3.78;;;1.17;;
52798;SDS011;38667;42.872;74.622;2023-06-26T01:50:47;2.67;;;1.13;;
52798;SDS011;38667;42.872;74.622;2023-06-26T01:53:16;4.32;;;1.23;;
52798;SDS011;38667;42.872;74.622;2023-06-26T01:55:45;2.80;;;0.90;;
52798;SDS011;38667;42.872;74.622;2023-06-26T01:58:15;2.13;;;0.77;;
52798;SDS011;38667;42.872;74.622;2023-06-26T02:03:21;1.90;;;0.93;;
52798;SDS011;38667;42.872;74.622;2023-06-26T02:07:39;3.47;;;1.17;;
52798;SDS011;38667;42.872;74.622;2023-06-26T02:10:06;4.20;;;1.48;;
52798;SDS011;38667;42.872;74.622;2023-06-26T02:12:33;3.80;;;1.52;;
52798;SDS011;38667;42.872;74.622;2023-06-26T02:15:00;2.47;;;1.50;;
52798;SDS011;38667;42.872;74.622;2023-06-26T02:17:26;4.68;;;1.40;;
52798;SDS011;38667;42.872;74.622;2023-06-26T02:19:53;3.65;;;1.70;;
52798;SDS011;38667;42.872;74.622;2023-06-26T02:22:19;6.18;;;1.70;;
52798;SDS011;38667;42.872;74.622;2023-06-26T02:24:47;4.70;;;1.48;;
52798;SDS011;38667;42.872;74.622;2023-06-26T02:27:13;5.38;;;2.25;;
52798;SDS011;38667;42.872;74.622;2023-06-26T02:29:40;5.70;;;2.47;;
52798;SDS011;38667;42.872;74.622;2023-06-26T02:32:06;9.55;;;3.40;;
52798;SDS011;38667;42.872;74.622;2023-06-26T02:34:33;6.55;;;2.95;;
52798;SDS011;38667;42.872;74.622;2023-06-26T02:36:59;5.22;;;2.08;;
52798;SDS011;38667;42.872;74.622;2023-06-26T02:39:26;10.95;;;3.10;;
52798;SDS011;38667;42.872;74.622;2023-06-26T02:41:54;5.82;;;2.17;;
52798;SDS011;38667;42.872;74.622;2023-06-26T02:44:20;5.35;;;2.08;;
52798;SDS011;38667;42.872;74.622;2023-06-26T02:46:47;2.58;;;1.88;;
52798;SDS011;38667;42.872;74.622;2023-06-26T02:49:13;4.97;;;1.42;;
52798;SDS011;38667;42.872;74.622;2023-06-26T02:51:39;2.95;;;1.50;;
52798;SDS011;38667;42.872;74.622;2023-06-26T02:54:06;2.72;;;1.63;;
52798;SDS011;38667;42.872;74.622;2023-06-26T02:56:32;2.35;;;1.73;;
52798;SDS011;38667;42.872;74.622;2023-06-26T02:59:00;2.33;;;1.65;;
52798;SDS011;38667;42.872;74.622;2023-06-26T03:01:26;4.90;;;1.95;;
52798;SDS011;38667;42.872;74.622;2023-06-26T03:03:53;3.55;;;2.58;;
52798;SDS011;38667;42.872;74.622;2023-06-26T03:06:19;5.32;;;2.78;;
52798;SDS011;38667;42.872;74.622;2023-06-26T03:08:46;7.65;;;2.78;;
52798;SDS011;38667;42.872;74.622;2023-06-26T03:11:12;9.30;;;2.92;;
52798;SDS011;38667;42.872;74.622;2023-06-26T03:13:38;5.22;;;2.20;;
52798;SDS011;38667;42.872;74.622;2023-06-26T03:16:06;5.90;;;2.53;;
52798;SDS011;38667;42.872;74.622;2023-06-26T03:18:33;11.95;;;2.20;;
52798;SDS011;38667;42.872;74.622;2023-06-26T03:20:59;6.60;;;2.20;;
52798;SDS011;38667;42.872;74.622;2023-06-26T03:23:25;5.25;;;2.60;;
52798;SDS011;38667;42.872;74.622;2023-06-26T03:25:52;9.50;;;3.20;;
52798;SDS011;38667;42.872;74.622;2023-06-26T03:28:18;4.32;;;2.60;;
52798;SDS011;38667;42.872;74.622;2023-06-26T03:30:44;12.30;;;2.30;;
52798;SDS011;38667;42.872;74.622;2023-06-26T03:33:12;4.40;;;1.90;;
52798;SDS011;38667;42.872;74.622;2023-06-26T03:35:38;4.05;;;1.85;;
52798;SDS011;38667;42.872;74.622;2023-06-26T03:38:05;5.35;;;1.77;;
52798;SDS011;38667;42.872;74.622;2023-06-26T03:40:31;2.65;;;1.90;;
52798;SDS011;38667;42.872;74.622;2023-06-26T03:42:57;2.30;;;1.33;;
52798;SDS011;38667;42.872;74.622;2023-06-26T03:45:24;6.30;;;1.95;;
52798;SDS011;38667;42.872;74.622;2023-06-26T03:47:50;7.82;;;1.60;;
52798;SDS011;38667;42.872;74.622;2023-06-26T03:50:18;3.88;;;2.17;;
52798;SDS011;38667;42.872;74.622;2023-06-26T03:52:44;6.82;;;2.15;;
52798;SDS011;38667;42.872;74.622;2023-06-26T03:55:11;4.53;;;1.98;;
52798;SDS011;38667;42.872;74.622;2023-06-26T03:57:38;5.78;;;1.98;;
52798;SDS011;38667;42.872;74.622;2023-06-26T04:00:04;4.05;;;1.58;;
52798;SDS011;38667;42.872;74.622;2023-06-26T04:02:31;6.03;;;1.85;;
52798;SDS011;38667;42.872;74.622;2023-06-26T04:04:58;3.90;;;1.80;;
52798;SDS011;38667;42.872;74.622;2023-06-26T04:07:26;4.05;;;1.77;;
52798;SDS011;38667;42.872;74.622;2023-06-26T04:09:52;2.88;;;1.75;;
52798;SDS011;38667;42.872;74.622;2023-06-26T04:12:18;5.22;;;2.03;;
52798;SDS011;38667;42.872;74.622;2023-06-26T04:14:45;8.35;;;2.28;;
52798;SDS011;38667;42.872;74.622;2023-06-26T04:17:11;8.80;;;2.65;;
52798;SDS011;38667;42.872;74.622;2023-06-26T04:19:37;4.85;;;2.58;;
52798;SDS011;38667;42.872;74.622;2023-06-26T04:22:04;5.63;;;2.67;;
52798;SDS011;38667;42.872;74.622;2023-06-26T04:24:32;3.83;;;2.10;;
52798;SDS011;38667;42.872;74.622;2023-06-26T04:27:00;7.90;;;2.08;;
52798;SDS011;38667;42.872;74.622;2023-06-26T04:29:26;4.45;;;1.98;;
52798;SDS011;38667;42.872;74.622;2023-06-26T04:31:53;4.40;;;2.15;;
52798;SDS011;38667;42.872;74.622;2023-06-26T04:34:19;5.13;;;2.08;;
52798;SDS011;38667;42.872;74.622;2023-06-26T04:36:45;5.00;;;2.08;;
52798;SDS011;38667;42.872;74.622;2023-06-26T04:39:12;7.78;;;2.30;;
52798;SDS011;38667;42.872;74.622;2023-06-26T04:41:40;4.30;;;1.90;;
52798;SDS011;38667;42.872;74.622;2023-06-26T04:44:06;6.65;;;2.80;;
52798;SDS011;38667;42.872;74.622;2023-06-26T04:46:32;7.38;;;2.00;;
52798;SDS011;38667;42.872;74.622;2023-06-26T04:48:59;4.00;;;1.92;;
52798;SDS011;38667;42.872;74.622;2023-06-26T04:51:25;7.55;;;1.85;;
52798;SDS011;38667;42.872;74.622;2023-06-26T04:53:52;5.32;;;2.20;;
52798;SDS011;38667;42.872;74.622;2023-06-26T04:56:18;4.78;;;2.53;;
52798;SDS011;38667;42.872;74.622;2023-06-26T04:58:46;3.40;;;2.55;;
52798;SDS011;38667;42.872;74.622;2023-06-26T05:01:12;6.25;;;2.88;;
52798;SDS011;38667;42.872;74.622;2023-06-26T05:03:38;6.18;;;2.63;;
52798;SDS011;38667;42.872;74.622;2023-06-26T05:06:05;6.80;;;2.15;;
52798;SDS011;38667;42.872;74.622;2023-06-26T05:08:31;5.75;;;2.65;;
52798;SDS011;38667;42.872;74.622;2023-06-26T05:10:58;6.03;;;1.90;;
52798;SDS011;38667;42.872;74.622;2023-06-26T05:13:24;7.82;;;2.88;;
52798;SDS011;38667;42.872;74.622;2023-06-26T05:15:52;6.63;;;2.33;;
52798;SDS011;38667;42.872;74.622;2023-06-26T05:18:19;5.88;;;2.22;;
52798;SDS011;38667;42.872;74.622;2023-06-26T05:20:45;6.60;;;1.98;;
52798;SDS011;38667;42.872;74.622;2023-06-26T05:23:12;8.32;;;2.38;;
52798;SDS011;38667;42.872;74.622;2023-06-26T05:25:41;3.95;;;2.20;;
52798;SDS011;38667;42.872;74.622;2023-06-26T05:28:08;4.85;;;2.03;;
52798;SDS011;38667;42.872;74.622;2023-06-26T05:30:35;6.60;;;2.33;;
52798;SDS011;38667;42.872;74.622;2023-06-26T05:33:04;8.57;;;3.08;;
52798;SDS011;38667;42.872;74.622;2023-06-26T05:35:32;5.00;;;2.20;;
52798;SDS011;38667;42.872;74.622;2023-06-26T05:38:01;4.07;;;2.03;;
52798;SDS011;38667;42.872;74.622;2023-06-26T05:40:28;8.88;;;2.72;;
52798;SDS011;38667;42.872;74.622;2023-06-26T05:42:54;4.80;;;2.20;;
52798;SDS011;38667;42.872;74.622;2023-06-26T05:45:21;7.07;;;2.85;;
52798;SDS011;38667;42.872;74.622;2023-06-26T05:47:47;5.18;;;2.80;;
52798;SDS011;38667;42.872;74.622;2023-06-26T05:50:17;5.30;;;2.83;;
52798;SDS011;38667;42.872;74.622;2023-06-26T05:52:44;6.60;;;2.22;;
52798;SDS011;38667;42.872;74.622;2023-06-26T05:55:11;4.00;;;2.33;;
52798;SDS011;38667;42.872;74.622;2023-06-26T05:57:38;6.50;;;2.00;;
52798;SDS011;38667;42.872;74.622;2023-06-26T06:00:07;5.03;;;2.10;;
52798;SDS011;38667;42.872;74.622;2023-06-26T06:02:33;12.80;;;2.55;;
52798;SDS011;38667;42.872;74.622;2023-06-26T06:05:00;5.75;;;2.33;;
52798;SDS011;38667;42.872;74.622;2023-06-26T06:07:28;6.60;;;2.80;;
52798;SDS011;38667;42.872;74.622;2023-06-26T06:09:54;5.72;;;2.30;;
52798;SDS011;38667;42.872;74.622;2023-06-26T06:12:20;6.68;;;2.83;;
52798;SDS011;38667;42.872;74.622;2023-06-26T06:14:47;7.97;;;2.85;;
52798;SDS011;38667;42.872;74.622;2023-06-26T06:17:13;4.32;;;2.30;;
52798;SDS011;38667;42.872;74.622;2023-06-26T06:19:40;4.90;;;2.80;;
52798;SDS011;38667;42.872;74.622;2023-06-26T06:22:06;8.75;;;2.55;;
52798;SDS011;38667;42.872;74.622;2023-06-26T06:24:34;11.13;;;2.42;;
52798;SDS011;38667;42.872;74.622;2023-06-26T06:27:00;3.67;;;2.38;;
52798;SDS011;38667;42.872;74.622;2023-06-26T06:29:26;9.18;;;2.88;;
52798;SDS011;38667;42.872;74.622;2023-06-26T06:31:53;8.05;;;3.72;;
52798;SDS011;38667;42.872;74.622;2023-06-26T06:34:19;6.38;;;3.08;;
52798;SDS011;38667;42.872;74.622;2023-06-26T06:36:45;10.20;;;2.97;;
52798;SDS011;38667;42.872;74.622;2023-06-26T06:39:12;11.50;;;2.70;;
52798;SDS011;38667;42.872;74.622;2023-06-26T06:41:40;11.35;;;3.30;;
52798;SDS011;38667;42.872;74.622;2023-06-26T06:44:06;11.90;;;3.08;;
52798;SDS011;38667;42.872;74.622;2023-06-26T06:46:32;9.48;;;3.10;;
52798;SDS011;38667;42.872;74.622;2023-06-26T06:48:59;9.20;;;2.97;;
52798;SDS011;38667;42.872;74.622;2023-06-26T06:51:25;8.30;;;3.28;;
52798;SDS011;38667;42.872;74.622;2023-06-26T06:53:51;9.18;;;3.50;;
52798;SDS011;38667;42.872;74.622;2023-06-26T06:56:18;9.05;;;3.28;;
52798;SDS011;38667;42.872;74.622;2023-06-26T06:58:46;7.88;;;3.15;;
52798;SDS011;38667;42.872;74.622;2023-06-26T07:01:12;12.65;;;5.35;;
52798;SDS011;38667;42.872;74.622;2023-06-26T07:03:38;12.45;;;8.23;;
52798;SDS011;38667;42.872;74.622;2023-06-26T07:06:05;9.45;;;7.40;;
52798;SDS011;38667;42.872;74.622;2023-06-26T07:08:31;13.82;;;7.85;;
52798;SDS011;38667;42.872;74.622;2023-06-26T07:10:58;10.90;;;5.15;;
52798;SDS011;38667;42.872;74.622;2023-06-26T07:13:24;11.77;;;4.32;;
52798;SDS011;38667;42.872;74.622;2023-06-26T07:15:52;15.32;;;5.13;;
52798;SDS011;38667;42.872;74.622;2023-06-26T07:18:18;8.93;;;3.92;;
52798;SDS011;38667;42.872;74.622;2023-06-26T07:20:44;10.57;;;3.05;;
52798;SDS011;38667;42.872;74.622;2023-06-26T07:23:11;8.70;;;3.50;;
52798;SDS011;38667;42.872;74.622;2023-06-26T07:25:37;9.38;;;3.20;;
52798;SDS011;38667;42.872;74.622;2023-06-26T07:28:05;8.27;;;3.45;;
52798;SDS011;38667;42.872;74.622;2023-06-26T07:30:35;16.40;;;5.22;;
52798;SDS011;38667;42.872;74.622;2023-06-26T07:33:03;16.92;;;4.22;;
52798;SDS011;38667;42.872;74.622;2023-06-26T07:35:30;10.38;;;3.38;;
52798;SDS011;38667;42.872;74.622;2023-06-26T07:37:56;6.65;;;2.80;;
52798;SDS011;38667;42.872;74.622;2023-06-26T07:40:23;6.28;;;3.13;;
52798;SDS011;38667;42.872;74.622;2023-06-26T07:42:49;6.10;;;2.58;;
52798;SDS011;38667;42.872;74.622;2023-06-26T07:45:16;6.18;;;2.65;;
52798;SDS011;38667;42.872;74.622;2023-06-26T07:47:42;10.25;;;2.40;;
52798;SDS011;38667;42.872;74.622;2023-06-26T07:50:10;5.10;;;2.40;;
52798;SDS011;38667;42.872;74.622;2023-06-26T07:52:37;6.15;;;2.40;;
52798;SDS011;38667;42.872;74.622;2023-06-26T07:55:04;4.18;;;2.70;;
52798;SDS011;38667;42.872;74.622;2023-06-26T07:57:30;8.40;;;3.17;;
52798;SDS011;38667;42.872;74.622;2023-06-26T07:59:57;6.07;;;2.70;;
52798;SDS011;38667;42.872;74.622;2023-06-26T08:02:23;7.15;;;2.75;;
52798;SDS011;38667;42.872;74.622;2023-06-26T08:04:52;5.43;;;2.50;;
52798;SDS011;38667;42.872;74.622;2023-06-26T08:07:20;9.02;;;2.88;;
52798;SDS011;38667;42.872;74.622;2023-06-26T08:09:46;14.05;;;3.05;;
52798;SDS011;38667;42.872;74.622;2023-06-26T08:12:13;7.47;;;3.00;;
52798;SDS011;38667;42.872;74.622;2023-06-26T08:14:39;8.02;;;3.08;;
52798;SDS011;38667;42.872;74.622;2023-06-26T08:17:05;8.32;;;3.50;;
52798;SDS011;38667;42.872;74.622;2023-06-26T08:19:32;7.43;;;2.70;;
52798;SDS011;38667;42.872;74.622;2023-06-26T08:21:58;11.55;;;3.17;;
52798;SDS011;38667;42.872;74.622;2023-06-26T08:24:26;9.23;;;3.20;;
52798;SDS011;38667;42.872;74.622;2023-06-26T08:26:52;6.45;;;3.58;;
52798;SDS011;38667;42.872;74.622;2023-06-26T08:29:18;8.60;;;3.63;;
52798;SDS011;38667;42.872;74.622;2023-06-26T08:31:45;15.27;;;4.40;;
52798;SDS011;38667;42.872;74.622;2023-06-26T08:34:11;11.00;;;3.60;;
52798;SDS011;38667;42.872;74.622;2023-06-26T08:36:37;6.93;;;3.65;;
52798;SDS011;38667;42.872;74.622;2023-06-26T08:39:04;9.32;;;3.58;;
52798;SDS011;38667;42.872;74.622;2023-06-26T08:41:32;9.25;;;3.58;;
52798;SDS011;38667;42.872;74.622;2023-06-26T08:43:58;9.30;;;3.40;;
52798;SDS011;38667;42.872;74.622;2023-06-26T08:46:24;9.68;;;3.63;;
52798;SDS011;38667;42.872;74.622;2023-06-26T08:48:53;8.70;;;3.05;;
52798;SDS011;38667;42.872;74.622;2023-06-26T08:51:21;9.88;;;3.47;;
52798;SDS011;38667;42.872;74.622;2023-06-26T08:53:50;8.80;;;3.10;;
52798;SDS011;38667;42.872;74.622;2023-06-26T08:56:21;6.90;;;2.90;;
52798;SDS011;38667;42.872;74.622;2023-06-26T08:58:50;8.50;;;3.55;;
52798;SDS011;38667;42.872;74.622;2023-06-26T09:01:17;12.65;;;5.03;;
52798;SDS011;38667;42.872;74.622;2023-06-26T09:03:44;10.35;;;3.03;;
52798;SDS011;38667;42.872;74.622;2023-06-26T09:06:10;5.85;;;3.00;;
52798;SDS011;38667;42.872;74.622;2023-06-26T09:08:37;6.82;;;4.05;;
52798;SDS011;38667;42.872;74.622;2023-06-26T09:11:03;6.45;;;4.32;;
52798;SDS011;38667;42.872;74.622;2023-06-26T09:13:30;9.57;;;3.22;;
52798;SDS011;38667;42.872;74.622;2023-06-26T09:15:58;5.47;;;3.10;;
52798;SDS011;38667;42.872;74.622;2023-06-26T09:18:24;8.82;;;3.97;;
52798;SDS011;38667;42.872;74.622;2023-06-26T09:20:50;8.98;;;4.60;;
52798;SDS011;38667;42.872;74.622;2023-06-26T09:23:17;8.52;;;3.83;;
52798;SDS011;38667;42.872;74.622;2023-06-26T09:25:43;11.02;;;5.47;;
52798;SDS011;38667;42.872;74.622;2023-06-26T09:28:13;5.20;;;3.50;;
52798;SDS011;38667;42.872;74.622;2023-06-26T09:30:39;7.45;;;3.45;;
52798;SDS011;38667;42.872;74.622;2023-06-26T09:33:17;5.13;;;3.40;;
52798;SDS011;38667;42.872;74.622;2023-06-26T09:35:44;6.78;;;3.50;;
52798;SDS011;38667;42.872;74.622;2023-06-26T09:38:11;6.65;;;2.97;;
52798;SDS011;38667;42.872;74.622;2023-06-26T09:40:38;5.03;;;2.75;;
52798;SDS011;38667;42.872;74.622;2023-06-26T09:43:04;4.25;;;2.70;;
52798;SDS011;38667;42.872;74.622;2023-06-26T09:45:31;7.97;;;3.40;;
52798;SDS011;38667;42.872;74.622;2023-06-26T09:47:59;10.70;;;4.00;;
52798;SDS011;38667;42.872;74.622;2023-06-26T09:50:27;8.15;;;3.78;;
52798;SDS011;38667;42.872;74.622;2023-06-26T09:52:54;7.32;;;3.20;;
52798;SDS011;38667;42.872;74.622;2023-06-26T09:55:21;6.05;;;3.05;;
52798;SDS011;38667;42.872;74.622;2023-06-26T09:57:47;8.57;;;2.80;;
52798;SDS011;38667;42.872;74.622;2023-06-26T10:02:41;5.28;;;2.95;;
52798;SDS011;38667;42.872;74.622;2023-06-26T10:05:07;6.30;;;3.25;;
52798;SDS011;38667;42.872;74.622;2023-06-26T10:07:36;5.78;;;3.28;;
52798;SDS011;38667;42.872;74.622;2023-06-26T10:10:03;4.35;;;2.83;;
52798;SDS011;38667;42.872;74.622;2023-06-26T10:12:32;6.55;;;3.05;;
52798;SDS011;38667;42.872;74.622;2023-06-26T10:14:59;7.55;;;3.58;;
52798;SDS011;38667;42.872;74.622;2023-06-26T10:17:27;8.57;;;3.10;;
52798;SDS011;38667;42.872;74.622;2023-06-26T10:19:57;6.57;;;3.05;;
52798;SDS011;38667;42.872;74.622;2023-06-26T10:22:27;7.78;;;2.75;;
52798;SDS011;38667;42.872;74.622;2023-06-26T10:24:57;5.80;;;2.58;;
52798;SDS011;38667;42.872;74.622;2023-06-26T10:27:25;5.88;;;2.80;;
52798;SDS011;38667;42.872;74.622;2023-06-26T10:29:53;7.78;;;2.97;;
52798;SDS011;38667;42.872;74.622;2023-06-26T10:32:21;8.85;;;2.88;;
52798;SDS011;38667;42.872;74.622;2023-06-26T10:34:50;5.95;;;3.08;;
52798;SDS011;38667;42.872;74.622;2023-06-26T10:37:17;5.72;;;3.15;;
52798;SDS011;38667;42.872;74.622;2023-06-26T10:39:47;7.97;;;3.38;;
52798;SDS011;38667;42.872;74.622;2023-06-26T10:42:16;6.57;;;3.65;;
52798;SDS011;38667;42.872;74.622;2023-06-26T10:44:44;4.57;;;3.03;;
52798;SDS011;38667;42.872;74.622;2023-06-26T10:47:11;7.22;;;4.00;;
52798;SDS011;38667;42.872;74.622;2023-06-26T10:49:53;6.70;;;3.50;;
52798;SDS011;38667;42.872;74.622;2023-06-26T10:52:20;7.82;;;3.40;;
52798;SDS011;38667;42.872;74.622;2023-06-26T10:54:46;7.38;;;2.95;;
52798;SDS011;38667;42.872;74.622;2023-06-26T10:57:12;10.98;;;2.97;;
52798;SDS011;38667;42.872;74.622;2023-06-26T11:00:00;5.80;;;2.80;;
52798;SDS011;38667;42.872;74.622;2023-06-26T11:02:47;6.15;;;3.05;;
52798;SDS011;38667;42.872;74.622;2023-06-26T11:05:23;5.47;;;2.53;;
52798;SDS011;38667;42.872;74.622;2023-06-26T11:08:02;8.20;;;2.60;;
52798;SDS011;38667;42.872;74.622;2023-06-26T11:10:29;7.75;;;2.38;;
52798;SDS011;38667;42.872;74.622;2023-06-26T11:13:14;6.00;;;2.70;;
52798;SDS011;38667;42.872;74.622;2023-06-26T11:15:43;7.82;;;3.22;;
52798;SDS011;38667;42.872;74.622;2023-06-26T11:18:09;4.80;;;2.67;;
52798;SDS011;38667;42.872;74.622;2023-06-26T11:20:36;5.15;;;3.03;;
52798;SDS011;38667;42.872;74.622;2023-06-26T11:23:02;5.70;;;2.80;;
52798;SDS011;38667;42.872;74.622;2023-06-26T11:25:30;6.53;;;3.00;;
52798;SDS011;38667;42.872;74.622;2023-06-26T11:27:59;7.80;;;3.10;;
52798;SDS011;38667;42.872;74.622;2023-06-26T11:30:27;6.60;;;3.35;;
52798;SDS011;38667;42.872;74.622;2023-06-26T11:32:53;5.38;;;3.03;;
52798;SDS011;38667;42.872;74.622;2023-06-26T11:35:28;4.47;;;2.63;;
52798;SDS011;38667;42.872;74.622;2023-06-26T11:37:55;7.53;;;2.90;;
52798;SDS011;38667;42.872;74.622;2023-06-26T11:40:22;7.53;;;3.13;;
52798;SDS011;38667;42.872;74.622;2023-06-26T11:42:49;5.68;;;3.42;;
52798;SDS011;38667;42.872;74.622;2023-06-26T11:45:15;13.98;;;3.13;;
52798;SDS011;38667;42.872;74.622;2023-06-26T11:47:43;6.88;;;3.28;;
52798;SDS011;38667;42.872;74.622;2023-06-26T11:50:14;7.70;;;2.83;;
52798;SDS011;38667;42.872;74.622;2023-06-26T11:52:41;8.10;;;2.50;;
52798;SDS011;38667;42.872;74.622;2023-06-26T11:55:08;6.72;;;3.08;;
52798;SDS011;38667;42.872;74.622;2023-06-26T11:57:34;5.43;;;2.88;;
52798;SDS011;38667;42.872;74.622;2023-06-26T12:00:10;8.00;;;2.92;;
52798;SDS011;38667;42.872;74.622;2023-06-26T12:02:37;7.25;;;2.83;;
52798;SDS011;38667;42.872;74.622;2023-06-26T12:05:05;7.68;;;3.00;;
52798;SDS011;38667;42.872;74.622;2023-06-26T12:07:32;7.30;;;3.30;;
52798;SDS011;38667;42.872;74.622;2023-06-26T12:09:59;5.50;;;2.90;;
52798;SDS011;38667;42.872;74.622;2023-06-26T12:12:26;7.28;;;3.33;;
52798;SDS011;38667;42.872;74.622;2023-06-26T12:14:53;8.25;;;3.28;;
52798;SDS011;38667;42.872;74.622;2023-06-26T12:17:21;6.05;;;2.83;;
52798;SDS011;38667;42.872;74.622;2023-06-26T12:19:49;8.40;;;3.80;;
52798;SDS011;38667;42.872;74.622;2023-06-26T12:22:17;9.38;;;3.90;;
52798;SDS011;38667;42.872;74.622;2023-06-26T12:24:43;9.23;;;3.72;;
52798;SDS011;38667;42.872;74.622;2023-06-26T12:27:11;9.40;;;3.90;;
52798;SDS011;38667;42.872;74.622;2023-06-26T12:29:39;15.57;;;5.15;;
52798;SDS011;38667;42.872;74.622;2023-06-26T12:32:08;6.47;;;2.90;;
52798;SDS011;38667;42.872;74.622;2023-06-26T12:34:36;9.13;;;3.30;;
52798;SDS011;38667;42.872;74.622;2023-06-26T12:37:04;10.50;;;3.58;;
52798;SDS011;38667;42.872;74.622;2023-06-26T12:39:46;8.77;;;6.70;;
52798;SDS011;38667;42.872;74.622;2023-06-26T12:42:13;7.20;;;4.00;;
52798;SDS011;38667;42.872;74.622;2023-06-26T12:44:41;5.55;;;3.15;;
52798;SDS011;38667;42.872;74.622;2023-06-26T12:47:07;10.35;;;3.85;;
52798;SDS011;38667;42.872;74.622;2023-06-26T12:49:34;7.18;;;2.90;;
52798;SDS011;38667;42.872;74.622;2023-06-26T12:52:01;6.03;;;2.85;;
52798;SDS011;38667;42.872;74.622;2023-06-26T12:54:29;13.05;;;3.42;;
52798;SDS011;38667;42.872;74.622;2023-06-26T12:56:57;8.00;;;2.92;;
52798;SDS011;38667;42.872;74.622;2023-06-26T12:59:23;8.45;;;2.67;;
52798;SDS011;38667;42.872;74.622;2023-06-26T13:01:50;7.45;;;2.78;;
52798;SDS011;38667;42.872;74.622;2023-06-26T13:04:16;9.40;;;2.85;;
52798;SDS011;38667;42.872;74.622;2023-06-26T13:06:42;8.75;;;3.58;;
52798;SDS011;38667;42.872;74.622;2023-06-26T13:09:09;10.55;;;3.72;;
52798;SDS011;38667;42.872;74.622;2023-06-26T13:11:36;6.18;;;3.20;;
52798;SDS011;38667;42.872;74.622;2023-06-26T13:14:04;9.18;;;2.78;;
52798;SDS011;38667;42.872;74.622;2023-06-26T13:16:30;4.30;;;2.50;;
52798;SDS011;38667;42.872;74.622;2023-06-26T13:18:57;8.25;;;3.30;;
52798;SDS011;38667;42.872;74.622;2023-06-26T13:21:25;10.70;;;3.40;;
52798;SDS011;38667;42.872;74.622;2023-06-26T13:23:51;9.27;;;3.67;;
52798;SDS011;38667;42.872;74.622;2023-06-26T13:26:18;9.68;;;3.70;;
52798;SDS011;38667;42.872;74.622;2023-06-26T13:28:45;10.57;;;4.47;;
52798;SDS011;38667;42.872;74.622;2023-06-26T13:31:13;10.15;;;5.90;;
52798;SDS011;38667;42.872;74.622;2023-06-26T13:33:39;9.70;;;5.45;;
52798;SDS011;38667;42.872;74.622;2023-06-26T13:36:06;11.85;;;5.30;;
52798;SDS011;38667;42.872;74.622;2023-06-26T13:38:32;9.02;;;5.07;;
52798;SDS011;38667;42.872;74.622;2023-06-26T13:40:59;11.25;;;4.30;;
52798;SDS011;38667;42.872;74.622;2023-06-26T13:43:26;7.40;;;3.75;;
52798;SDS011;38667;42.872;74.622;2023-06-26T13:45:53;8.15;;;3.90;;
52798;SDS011;38667;42.872;74.622;2023-06-26T13:48:21;7.00;;;3.60;;
52798;SDS011;38667;42.872;74.622;2023-06-26T13:50:47;11.00;;;3.78;;
52798;SDS011;38667;42.872;74.622;2023-06-26T13:53:14;8.32;;;3.70;;
52798;SDS011;38667;42.872;74.622;2023-06-26T13:55:40;8.68;;;3.78;;
52798;SDS011;38667;42.872;74.622;2023-06-26T13:58:07;7.03;;;3.85;;
52798;SDS011;38667;42.872;74.622;2023-06-26T14:00:33;6.78;;;3.47;;
52798;SDS011;38667;42.872;74.622;2023-06-26T14:03:00;11.05;;;4.03;;
52798;SDS011;38667;42.872;74.622;2023-06-26T14:05:29;11.90;;;3.75;;
52798;SDS011;38667;42.872;74.622;2023-06-26T14:07:55;7.57;;;3.92;;
52798;SDS011;38667;42.872;74.622;2023-06-26T14:10:21;7.47;;;3.58;;
52798;SDS011;38667;42.872;74.622;2023-06-26T14:12:48;6.28;;;3.88;;
52798;SDS011;38667;42.872;74.622;2023-06-26T14:15:15;6.95;;;4.13;;
52798;SDS011;38667;42.872;74.622;2023-06-26T14:17:41;10.80;;;5.05;;
52798;SDS011;38667;42.872;74.622;2023-06-26T14:20:08;11.32;;;4.60;;
52798;SDS011;38667;42.872;74.622;2023-06-26T14:22:37;10.07;;;5.20;;
52798;SDS011;38667;42.872;74.622;2023-06-26T14:25:03;14.13;;;5.30;;
52798;SDS011;38667;42.872;74.622;2023-06-26T14:27:30;9.27;;;4.82;;
52798;SDS011;38667;42.872;74.622;2023-06-26T14:29:57;7.85;;;4.78;;
52798;SDS011;38667;42.872;74.622;2023-06-26T14:32:23;15.57;;;8.52;;
52798;SDS011;38667;42.872;74.622;2023-06-26T14:34:49;15.10;;;6.38;;
52798;SDS011;38667;42.872;74.622;2023-06-26T14:37:15;14.68;;;6.40;;
52798;SDS011;38667;42.872;74.622;2023-06-26T14:39:43;10.10;;;5.70;;
52798;SDS011;38667;42.872;74.622;2023-06-26T14:42:10;22.40;;;17.58;;